Airfield :
LOGIN :

Register | Disclaimer

   EN    FR    IT 

 










Legend :    VFR   Marginal VFR   IFR   Intensive IFR   Very Intensive IFR
Visi :
Ceiling :
>= 8 km
>= 3000ft
5 to 8 km
1000 to 3000 ft
1500m to 5 km
500 to 1000 ft
800 to 1500m
200 to 500 ft
< 800m
< 200 ft
Symbols :   Thunderstorms  Fog  Heavy snow  Heavy precipitations  Wind > 20 kt
SIGMETs :     Misc.  Thunderstorms  Icing  Turbulence  Mountain Waves  Volcanic Ashes






- Airport Elevation : 17 ft
- IATA code : MPL


LFMT - Montpellier Méditerranée

CURRENT METAR :
  • 230700Z AUTO 12024G34KT 7000 -TSRA FEW014/// BKN048/// OVC082/// ///CB 20/16 Q1007 TEMPO 0600 TSRAGR FG

EXPIRED METARs :
  • 230630Z AUTO 11028KT 9999 TS BKN045/// OVC052/// ///CB 21/15 Q1007 TEMPO VRB15G40KT 0600 TSRAGR FG
  • 230600Z AUTO 09019KT 9999 -RA VCTS ///CB 20/15 Q1006 TEMPO VRB15G40KT 0600 TSRAGR FG
  • 230530Z AUTO 07012G22KT 040V110 9999 VCTS FEW019/// OVC054/// ///CB 18/14 Q1007 TEMPO VRB15G40KT 0600 TSRAGR FG
  • 230500Z AUTO 28010KT 250V340 9999 3800 +TSRA FEW012/// OVC062/// ///CB 16/14 Q1009 TEMPO VRB15G40KT 0600 TSRAGR FG
  • 230430Z AUTO 30007KT 9999 TSRA FEW006/// OVC066/// ///CB 16/14 Q1008 TEMPO VRB15G40KT 0600 TSRAGR FG

TAF AMD TAF LFMT
Valid from the 23 at 03:00 until the 24 at 03:00 UTC


230330Z 2303/2403 03015KT 9999 SCT014 OVC060
TEMPO 2303/2313 VRB15G40KT 0600 TSRAGR FG BKN030CB
PROB30
TEMPO 2303/2311 FC
TEMPO 2313/2320 12015G25KT 4000 SHRA BKN008 SCT030TCU OVC033
BECMG 2320/2322 16015KT
ATIS : +33 4 67 13 11 70



MET'MAP, your aeronautical weather chart ! - Copyright ORBIFLY December 2007 - Disclaimer

ORBIFLY MET'MAP TEAM :

Programming & Development : Alexandra Zaïnal
Concept & Development : Baudouin d'Aumeries
Co-Development & Prog : Marc-Olivier Méhu
Technical & hardware support : Manuel Goepfert

Contact : metmap@orbifly.com




SOURCES & CREDITS :

   NOAA